createdAt,value
2019-03-31T00:00:10.997Z,15.30
2019-03-31T00:02:39.670Z,15.17
2019-03-31T00:05:08.253Z,15.80
2019-03-31T00:07:36.683Z,16.17
2019-03-31T00:10:08.732Z,15.37
2019-03-31T00:12:37.220Z,16.60
2019-03-31T00:15:07.311Z,15.27
2019-03-31T00:17:35.765Z,15.57
2019-03-31T00:20:05.504Z,16.13
2019-03-31T00:22:33.937Z,16.63
2019-03-31T00:25:02.671Z,21.70
2019-03-31T00:27:31.107Z,19.07
2019-03-31T00:29:59.568Z,20.70
2019-03-31T00:32:27.983Z,18.73
2019-03-31T00:34:56.437Z,16.70
2019-03-31T00:37:24.895Z,17.60
2019-03-31T00:39:53.347Z,16.57
2019-03-31T00:42:21.787Z,16.17
2019-03-31T00:44:50.216Z,15.93
2019-03-31T00:47:18.742Z,15.30
2019-03-31T00:49:47.178Z,14.70
2019-03-31T00:52:15.637Z,14.83
2019-03-31T00:54:44.060Z,14.80
2019-03-31T00:57:12.597Z,14.73
2019-03-31T00:59:41.033Z,14.17
2019-03-31T01:02:11.265Z,13.57
2019-03-31T01:04:39.715Z,13.10
2019-03-31T01:07:09.536Z,13.77
2019-03-31T01:09:38.232Z,13.70
2019-03-31T01:12:06.837Z,13.63
2019-03-31T01:14:35.547Z,12.67
2019-03-31T01:17:06.591Z,14.03
2019-03-31T01:19:35.376Z,12.97
2019-03-31T01:22:04.087Z,13.37
2019-03-31T01:24:32.679Z,13.50
2019-03-31T01:27:01.588Z,13.47
2019-03-31T01:29:30.092Z,13.07
2019-03-31T01:31:58.687Z,13.30
2019-03-31T01:34:27.286Z,12.87
2019-03-31T01:36:55.826Z,13.00
2019-03-31T01:39:24.728Z,13.30
2019-03-31T01:41:53.171Z,13.63
2019-03-31T01:44:21.966Z,14.07
2019-03-31T01:46:50.548Z,13.83
2019-03-31T01:49:19.353Z,12.57
2019-03-31T01:51:47.847Z,12.53
2019-03-31T01:54:16.398Z,12.70
2019-03-31T01:56:45.073Z,13.50
2019-03-31T01:59:13.654Z,13.53
2019-03-31T02:01:42.141Z,14.07
2019-03-31T02:04:10.592Z,12.63
2019-03-31T02:06:39.103Z,12.47
2019-03-31T02:09:08.044Z,12.70
2019-03-31T02:11:36.476Z,13.23
2019-03-31T02:14:05.165Z,12.50
2019-03-31T02:16:33.667Z,13.07
2019-03-31T02:19:02.117Z,13.13
2019-03-31T02:21:30.542Z,12.60
2019-03-31T02:23:59.007Z,12.67
2019-03-31T02:26:27.500Z,13.93
2019-03-31T02:28:55.959Z,13.33
2019-03-31T02:31:24.603Z,14.10
2019-03-31T02:33:53.252Z,13.33
2019-03-31T02:36:21.690Z,14.30
2019-03-31T02:38:50.153Z,13.33
2019-03-31T02:41:18.641Z,13.77
2019-03-31T02:43:47.078Z,13.80
2019-03-31T02:46:15.529Z,13.53
2019-03-31T02:48:43.977Z,14.23
2019-03-31T02:51:12.972Z,14.13
2019-03-31T02:53:41.963Z,14.30
2019-03-31T02:56:12.023Z,13.67
2019-03-31T02:58:40.887Z,13.97
2019-03-31T03:01:10.186Z,13.63
2019-03-31T03:03:40.716Z,13.77
2019-03-31T03:06:12.381Z,14.33
2019-03-31T03:08:42.347Z,14.53
2019-03-31T03:11:12.712Z,14.67
2019-03-31T03:13:43.296Z,14.17
2019-03-31T03:16:19.745Z,14.87
2019-03-31T03:18:49.005Z,15.03
2019-03-31T03:21:17.790Z,15.13
2019-03-31T03:23:46.289Z,15.37
2019-03-31T03:26:14.979Z,15.07
2019-03-31T03:28:43.471Z,15.37
2019-03-31T03:31:16.075Z,14.67
2019-03-31T03:33:42.153Z,14.77
2019-03-31T03:36:10.789Z,14.83
2019-03-31T03:38:39.364Z,14.50
2019-03-31T03:41:07.826Z,14.03
2019-03-31T03:43:53.514Z,13.47
2019-03-31T03:46:06.508Z,13.97
2019-03-31T03:48:35.262Z,13.80
2019-03-31T03:51:03.827Z,14.37
2019-03-31T03:53:32.287Z,14.60
2019-03-31T03:56:29.753Z,13.70
2019-03-31T03:58:58.258Z,15.00
2019-03-31T04:01:27.732Z,14.83
2019-03-31T04:03:56.272Z,14.90
2019-03-31T04:06:24.752Z,14.97
2019-03-31T04:08:53.272Z,14.30
2019-03-31T04:11:23.018Z,14.73
2019-03-31T04:13:51.642Z,14.67
2019-03-31T04:16:20.228Z,15.37
2019-03-31T04:18:48.821Z,15.57
2019-03-31T04:21:17.563Z,15.13
2019-03-31T04:23:46.079Z,15.97
2019-03-31T04:26:14.613Z,15.50
2019-03-31T04:28:43.412Z,17.27
2019-03-31T04:31:11.854Z,15.17
2019-03-31T04:33:50.246Z,16.37
2019-03-31T04:36:10.571Z,15.70
2019-03-31T04:38:39.088Z,14.87
2019-03-31T04:41:07.525Z,16.37
2019-03-31T04:43:35.995Z,15.83
2019-03-31T04:46:04.495Z,15.83
2019-03-31T04:48:32.951Z,15.40
2019-03-31T04:51:01.531Z,16.30
2019-03-31T04:53:29.981Z,16.07
2019-03-31T04:55:58.717Z,16.60
2019-03-31T04:58:27.438Z,16.23
2019-03-31T05:01:02.225Z,15.80
2019-03-31T05:03:34.771Z,16.07
2019-03-31T05:06:03.228Z,17.83
2019-03-31T05:08:31.694Z,16.93
2019-03-31T05:11:00.123Z,17.10
2019-03-31T05:13:28.615Z,16.67
2019-03-31T05:15:57.139Z,16.43
2019-03-31T05:18:25.563Z,15.00
2019-03-31T05:20:54.020Z,15.77
2019-03-31T05:23:22.480Z,14.80
2019-03-31T05:25:51.510Z,15.30
2019-03-31T05:28:20.010Z,15.20
2019-03-31T05:30:48.469Z,14.77
2019-03-31T05:33:16.882Z,15.77
2019-03-31T05:35:45.332Z,14.90
2019-03-31T05:38:13.767Z,14.37
2019-03-31T05:40:42.287Z,14.03
2019-03-31T05:43:11.076Z,15.33
2019-03-31T05:45:39.514Z,15.30
2019-03-31T05:48:07.948Z,15.03
2019-03-31T05:50:36.397Z,15.47
2019-03-31T05:53:04.915Z,15.10
2019-03-31T05:55:33.948Z,14.37
2019-03-31T05:58:02.372Z,14.13
2019-03-31T06:00:34.311Z,13.87
2019-03-31T06:03:02.742Z,14.07
2019-03-31T06:05:31.183Z,14.93
2019-03-31T06:07:59.613Z,13.90
2019-03-31T06:10:27.755Z,14.73
2019-03-31T06:12:56.167Z,14.03
2019-03-31T06:15:24.687Z,14.50
2019-03-31T06:17:53.129Z,14.47
2019-03-31T06:20:21.596Z,15.43
2019-03-31T06:22:50.099Z,14.07
2019-03-31T06:25:18.580Z,16.20
2019-03-31T06:27:47.114Z,14.90
2019-03-31T06:30:15.878Z,14.53
2019-03-31T06:32:44.335Z,15.60
2019-03-31T06:35:21.411Z,15.27
2019-03-31T06:37:49.855Z,15.87
2019-03-31T06:40:18.296Z,16.33
2019-03-31T06:42:46.740Z,16.50
2019-03-31T06:45:15.235Z,15.43
2019-03-31T06:47:43.692Z,14.93
2019-03-31T06:50:12.199Z,19.37
2019-03-31T06:52:40.646Z,15.57
2019-03-31T06:55:09.159Z,15.27
2019-03-31T06:57:37.602Z,16.03
2019-03-31T07:00:09.412Z,16.00
2019-03-31T07:02:37.935Z,15.47
2019-03-31T07:05:07.598Z,16.17
2019-03-31T07:07:36.059Z,15.23
2019-03-31T07:10:06.667Z,15.60
2019-03-31T07:12:35.117Z,15.90
2019-03-31T07:15:05.720Z,16.27
2019-03-31T07:17:34.190Z,18.50
2019-03-31T07:20:02.869Z,24.33
2019-03-31T07:22:31.304Z,23.73
2019-03-31T07:24:59.747Z,25.50
2019-03-31T07:27:28.189Z,26.87
2019-03-31T07:29:56.673Z,27.13
2019-03-31T07:32:25.239Z,26.00
2019-03-31T07:34:53.708Z,28.17
2019-03-31T07:37:22.147Z,34.53
2019-03-31T07:39:50.961Z,34.97
2019-03-31T07:42:19.429Z,34.60
2019-03-31T07:44:47.947Z,35.53
2019-03-31T07:47:16.468Z,34.53
2019-03-31T07:49:44.937Z,34.20
2019-03-31T07:52:13.446Z,34.97
2019-03-31T07:54:41.925Z,34.73
2019-03-31T07:57:10.352Z,34.93
2019-03-31T07:59:38.864Z,37.23
2019-03-31T08:02:07.327Z,37.13
2019-03-31T08:04:35.808Z,36.50
2019-03-31T08:07:04.319Z,36.47
2019-03-31T08:09:32.763Z,36.37
2019-03-31T08:12:01.218Z,35.70
2019-03-31T08:14:29.686Z,34.87
2019-03-31T08:16:58.123Z,36.17
2019-03-31T08:19:26.719Z,33.10
2019-03-31T08:21:55.184Z,38.40
2019-03-31T08:24:23.631Z,39.20
2019-03-31T08:26:52.109Z,39.57
2019-03-31T08:29:20.536Z,38.80
2019-03-31T08:31:49.098Z,40.87
2019-03-31T08:34:17.559Z,41.27
2019-03-31T08:36:46.044Z,41.20
2019-03-31T08:39:14.480Z,41.30
2019-03-31T08:41:42.951Z,40.80
2019-03-31T08:44:11.426Z,43.70
2019-03-31T08:46:39.923Z,40.33
2019-03-31T08:49:08.375Z,42.50
2019-03-31T08:51:36.846Z,42.97
2019-03-31T08:54:05.282Z,41.77
2019-03-31T08:56:33.799Z,43.50
2019-03-31T08:59:02.268Z,43.70
2019-03-31T09:01:30.727Z,44.50
2019-03-31T09:03:59.159Z,43.30
2019-03-31T09:06:27.642Z,42.07
2019-03-31T09:08:56.151Z,43.07
2019-03-31T09:11:24.719Z,41.93
2019-03-31T09:13:53.163Z,41.73
2019-03-31T09:16:21.639Z,40.97
2019-03-31T09:18:50.139Z,48.90
2019-03-31T09:21:18.601Z,43.03
2019-03-31T09:23:47.134Z,41.50
2019-03-31T09:26:15.699Z,43.37
2019-03-31T09:28:44.161Z,43.57
2019-03-31T09:31:12.607Z,43.33
2019-03-31T09:33:41.100Z,44.20
2019-03-31T09:36:16.085Z,41.53
2019-03-31T09:38:39.947Z,42.90
2019-03-31T09:41:08.397Z,42.50
2019-03-31T09:43:36.924Z,42.27
2019-03-31T09:46:05.436Z,43.40
2019-03-31T09:48:34.022Z,42.40
2019-03-31T09:51:02.470Z,44.80
2019-03-31T09:53:30.991Z,44.07
2019-03-31T09:55:59.519Z,46.07
2019-03-31T09:58:28.006Z,45.40
2019-03-31T10:00:56.600Z,43.47
2019-03-31T10:03:25.113Z,45.53
2019-03-31T10:05:53.631Z,47.53
2019-03-31T10:08:22.530Z,43.03
2019-03-31T10:10:51.062Z,47.00
2019-03-31T10:13:19.540Z,45.83
2019-03-31T10:15:47.976Z,46.03
2019-03-31T10:18:18.150Z,46.47
2019-03-31T10:20:46.680Z,47.57
2019-03-31T10:23:15.148Z,46.20
2019-03-31T10:25:43.600Z,46.97
2019-03-31T10:28:12.059Z,47.10
2019-03-31T10:30:41.047Z,44.50
2019-03-31T10:33:09.559Z,44.90
2019-03-31T10:35:38.104Z,44.10
2019-03-31T10:38:06.905Z,43.47
2019-03-31T10:40:36.311Z,42.67
2019-03-31T10:43:05.014Z,42.13
2019-03-31T10:45:33.519Z,40.77
2019-03-31T10:48:01.968Z,44.00
2019-03-31T10:50:30.485Z,40.60
2019-03-31T10:52:58.933Z,45.07
2019-03-31T10:55:27.388Z,42.93
2019-03-31T10:57:55.911Z,44.07
2019-03-31T11:00:32.510Z,44.43
2019-03-31T11:03:01.020Z,42.10
2019-03-31T11:05:29.491Z,42.47
2019-03-31T11:07:57.911Z,40.83
2019-03-31T11:10:26.634Z,42.93
2019-03-31T11:12:55.107Z,42.63
2019-03-31T11:15:23.599Z,41.37
2019-03-31T11:17:52.032Z,39.20
2019-03-31T11:20:20.513Z,41.23
2019-03-31T11:22:50.741Z,42.47
2019-03-31T11:25:21.259Z,41.33
2019-03-31T11:27:49.404Z,38.67
2019-03-31T11:30:18.333Z,36.80
2019-03-31T11:32:46.764Z,35.90
2019-03-31T11:35:15.192Z,34.77
2019-03-31T11:37:43.655Z,37.20
2019-03-31T11:40:13.134Z,37.53
2019-03-31T11:42:41.594Z,35.90
2019-03-31T11:45:10.784Z,34.50
2019-03-31T11:47:39.246Z,34.90
2019-03-31T11:50:08.429Z,36.23
2019-03-31T11:52:36.910Z,34.33
2019-03-31T11:55:07.578Z,32.53
2019-03-31T11:57:36.060Z,35.03
2019-03-31T12:00:11.163Z,32.60
2019-03-31T12:02:39.809Z,33.57
2019-03-31T12:05:08.773Z,32.07
2019-03-31T12:07:46.592Z,31.70
2019-03-31T12:10:07.680Z,30.53
2019-03-31T12:12:36.142Z,31.57
2019-03-31T12:15:06.733Z,29.80
2019-03-31T12:17:35.255Z,27.80
2019-03-31T12:20:06.264Z,27.57
2019-03-31T12:22:34.720Z,24.73
2019-03-31T12:25:04.301Z,26.97
2019-03-31T12:27:32.751Z,25.10
2019-03-31T12:30:01.191Z,24.00
2019-03-31T12:32:29.656Z,24.90
2019-03-31T12:34:58.091Z,23.00
2019-03-31T12:37:41.359Z,24.00
2019-03-31T12:39:56.874Z,23.60
2019-03-31T12:42:25.379Z,21.43
2019-03-31T12:44:53.868Z,22.30
2019-03-31T12:47:22.299Z,21.40
2019-03-31T12:49:50.756Z,21.60
2019-03-31T12:52:20.726Z,21.67
2019-03-31T12:54:49.193Z,20.70
2019-03-31T12:57:17.636Z,19.90
2019-03-31T12:59:46.107Z,21.27
2019-03-31T13:02:14.618Z,20.33
2019-03-31T13:04:43.095Z,20.53
2019-03-31T13:07:14.668Z,18.33
2019-03-31T13:09:41.760Z,19.40
2019-03-31T13:12:10.214Z,19.40
2019-03-31T13:14:38.672Z,18.67
2019-03-31T13:17:07.114Z,20.13
2019-03-31T13:19:35.604Z,18.13
2019-03-31T13:22:04.097Z,18.27
2019-03-31T13:24:32.544Z,18.60
2019-03-31T13:27:01.509Z,18.43
2019-03-31T13:29:29.979Z,17.77
2019-03-31T13:31:58.437Z,17.80
2019-03-31T13:34:26.885Z,17.47
2019-03-31T13:36:55.448Z,17.80
2019-03-31T13:39:23.905Z,18.33
2019-03-31T13:41:52.356Z,18.70
2019-03-31T13:44:20.870Z,18.83
2019-03-31T13:46:49.338Z,19.03
2019-03-31T13:49:17.797Z,18.10
2019-03-31T13:51:46.247Z,18.37
2019-03-31T13:54:14.711Z,17.63
2019-03-31T13:56:47.725Z,17.37
2019-03-31T13:59:13.440Z,17.60
2019-03-31T14:01:41.972Z,17.20
2019-03-31T14:04:10.413Z,17.83
2019-03-31T14:06:38.831Z,18.17
2019-03-31T14:09:09.141Z,17.73
2019-03-31T14:11:37.676Z,18.17
2019-03-31T14:14:06.127Z,18.43
2019-03-31T14:16:34.606Z,17.43
2019-03-31T14:19:03.099Z,16.77
2019-03-31T14:21:31.579Z,16.70
2019-03-31T14:24:00.015Z,16.47
2019-03-31T14:26:28.533Z,16.00
2019-03-31T14:28:57.087Z,16.37
2019-03-31T14:31:25.518Z,15.93
2019-03-31T14:33:54.017Z,15.73
2019-03-31T14:36:22.511Z,15.30
2019-03-31T14:38:51.086Z,15.10
2019-03-31T14:41:19.556Z,15.10
2019-03-31T14:43:48.008Z,15.43
2019-03-31T14:46:19.484Z,14.30
2019-03-31T14:48:46.780Z,14.27
2019-03-31T14:51:15.293Z,13.90
2019-03-31T14:53:43.755Z,14.03
2019-03-31T14:56:12.193Z,13.80
2019-03-31T14:58:40.683Z,13.63
2019-03-31T15:01:09.123Z,12.90
2019-03-31T15:03:40.171Z,13.60
2019-03-31T15:06:08.601Z,13.50
2019-03-31T15:08:37.088Z,14.90
2019-03-31T15:11:05.665Z,13.07
2019-03-31T15:13:34.153Z,15.20
2019-03-31T15:16:02.587Z,15.33
2019-03-31T15:18:31.030Z,15.33
2019-03-31T15:20:59.552Z,12.77
2019-03-31T15:23:29.487Z,14.47
2019-03-31T15:25:58.204Z,14.80
2019-03-31T15:28:26.647Z,14.43
2019-03-31T15:30:55.108Z,12.93
2019-03-31T15:33:23.571Z,12.50
2019-03-31T15:35:52.041Z,13.17
2019-03-31T15:38:20.520Z,11.97
2019-03-31T15:40:49.002Z,12.07
2019-03-31T15:43:17.523Z,10.27
2019-03-31T15:45:46.107Z,11.40
2019-03-31T15:48:14.584Z,10.50
2019-03-31T15:50:43.066Z,11.37
2019-03-31T15:53:11.557Z,10.37
2019-03-31T15:55:40.051Z,10.17
2019-03-31T15:58:08.522Z,9.47
2019-03-31T16:00:37.032Z,9.00
2019-03-31T16:03:05.477Z,9.43
2019-03-31T16:05:33.954Z,9.17
2019-03-31T16:08:02.381Z,9.87
2019-03-31T16:10:30.935Z,9.40
2019-03-31T16:12:59.392Z,9.33
2019-03-31T16:15:28.136Z,8.90
2019-03-31T16:17:56.734Z,10.30
2019-03-31T16:20:25.317Z,8.37
2019-03-31T16:22:53.799Z,9.07
2019-03-31T16:25:30.264Z,8.90
2019-03-31T16:27:58.916Z,9.23
2019-03-31T16:30:27.702Z,8.40
2019-03-31T16:32:56.205Z,8.67
2019-03-31T16:35:24.717Z,9.17
2019-03-31T16:37:53.421Z,8.90
2019-03-31T16:40:21.901Z,8.70
2019-03-31T16:42:50.365Z,9.07
2019-03-31T16:45:18.798Z,8.30
2019-03-31T16:47:47.287Z,7.93
2019-03-31T16:50:15.894Z,7.80
2019-03-31T16:52:44.418Z,7.77
2019-03-31T16:55:13.722Z,8.40
2019-03-31T16:57:42.245Z,7.67
2019-03-31T17:00:11.826Z,8.03
2019-03-31T17:02:40.426Z,8.40
2019-03-31T17:05:21.109Z,8.33
2019-03-31T17:07:39.532Z,8.03
2019-03-31T17:10:08.312Z,8.00
2019-03-31T17:12:36.768Z,8.23
2019-03-31T17:15:08.376Z,7.80
2019-03-31T17:17:36.824Z,8.27
2019-03-31T17:20:06.701Z,8.83
2019-03-31T17:22:35.318Z,8.43
2019-03-31T17:25:04.830Z,9.00
2019-03-31T17:27:33.261Z,8.93
2019-03-31T17:30:01.715Z,8.73
2019-03-31T17:32:30.243Z,8.33
2019-03-31T17:34:58.717Z,8.73
2019-03-31T17:37:27.136Z,8.50
2019-03-31T17:40:05.927Z,8.10
2019-03-31T17:42:25.752Z,8.10
2019-03-31T17:44:54.317Z,8.47
2019-03-31T17:47:22.742Z,8.30
2019-03-31T17:49:51.203Z,7.97
2019-03-31T17:52:19.721Z,7.83
2019-03-31T17:54:48.211Z,8.03
2019-03-31T17:57:16.807Z,8.83
2019-03-31T17:59:45.345Z,7.90
2019-03-31T18:02:13.855Z,7.97
2019-03-31T18:04:42.430Z,8.37
2019-03-31T18:07:11.001Z,8.23
2019-03-31T18:09:39.435Z,8.40
2019-03-31T18:12:07.909Z,8.03
2019-03-31T18:14:36.341Z,7.97
2019-03-31T18:17:04.939Z,7.83
2019-03-31T18:19:33.435Z,8.30
2019-03-31T18:22:15.613Z,8.30
2019-03-31T18:24:32.129Z,8.33
2019-03-31T18:27:00.608Z,8.77
2019-03-31T18:29:29.036Z,8.80
2019-03-31T18:31:57.488Z,8.33
2019-03-31T18:34:26.009Z,8.83
2019-03-31T18:36:54.660Z,7.93
2019-03-31T18:39:23.112Z,8.10
2019-03-31T18:41:51.577Z,8.23
2019-03-31T18:44:19.998Z,8.77
2019-03-31T18:46:48.570Z,8.33
2019-03-31T18:49:17.040Z,7.67
2019-03-31T18:51:45.552Z,7.23
2019-03-31T18:54:34.015Z,7.53
2019-03-31T18:57:06.891Z,7.50
2019-03-31T18:59:52.296Z,7.13
2019-03-31T19:02:25.154Z,7.43
2019-03-31T19:04:54.692Z,7.27
2019-03-31T19:07:24.810Z,7.63
2019-03-31T19:09:54.915Z,7.90
2019-03-31T19:12:31.079Z,7.07
2019-03-31T19:15:06.943Z,7.97
2019-03-31T19:17:42.977Z,6.70
2019-03-31T19:20:16.203Z,6.80
2019-03-31T19:22:49.124Z,6.93
2019-03-31T19:25:28.087Z,6.73
2019-03-31T19:27:58.220Z,6.97
2019-03-31T19:30:44.221Z,6.43
2019-03-31T19:33:30.674Z,7.00
2019-03-31T19:36:12.740Z,7.17
2019-03-31T19:38:42.858Z,6.60
2019-03-31T19:41:29.115Z,6.40
2019-03-31T19:44:02.206Z,6.30
2019-03-31T19:46:38.084Z,6.67
2019-03-31T19:49:08.222Z,6.40
2019-03-31T19:51:38.368Z,6.73
2019-03-31T19:54:23.908Z,6.50
2019-03-31T19:56:53.978Z,6.30
2019-03-31T19:59:36.322Z,6.30
2019-03-31T20:02:25.362Z,6.50
2019-03-31T20:04:55.672Z,6.60
2019-03-31T20:07:29.734Z,5.90
2019-03-31T20:09:59.838Z,5.80
2019-03-31T20:12:36.078Z,5.97
2019-03-31T20:15:24.037Z,5.67
2019-03-31T20:17:54.111Z,7.97
2019-03-31T20:20:32.780Z,6.33
2019-03-31T20:23:02.847Z,6.97
2019-03-31T20:25:32.983Z,7.20
2019-03-31T20:28:08.842Z,5.70
2019-03-31T20:30:41.895Z,5.40
2019-03-31T20:33:14.998Z,5.43
2019-03-31T20:35:50.667Z,5.57
2019-03-31T20:38:20.733Z,5.63
2019-03-31T20:40:50.816Z,5.57
2019-03-31T20:43:29.690Z,5.27
2019-03-31T20:45:58.153Z,5.23
2019-03-31T20:48:26.692Z,5.73
2019-03-31T20:50:55.575Z,5.70
2019-03-31T20:53:23.999Z,5.20
2019-03-31T20:55:52.472Z,5.77
2019-03-31T20:58:20.887Z,5.23
2019-03-31T21:00:49.347Z,5.20
2019-03-31T21:03:17.808Z,5.33
2019-03-31T21:05:46.235Z,5.50
2019-03-31T21:08:14.695Z,5.00
2019-03-31T21:10:43.111Z,5.37
2019-03-31T21:13:11.579Z,4.97
2019-03-31T21:15:40.017Z,5.20
2019-03-31T21:18:08.471Z,5.10
2019-03-31T21:20:36.887Z,5.60
2019-03-31T21:23:05.363Z,5.50
2019-03-31T21:25:33.801Z,5.57
2019-03-31T21:28:02.488Z,5.13
2019-03-31T21:30:30.959Z,4.97
2019-03-31T21:32:59.478Z,4.70
2019-03-31T21:35:27.925Z,5.10
2019-03-31T21:37:56.371Z,5.00
2019-03-31T21:40:24.800Z,5.33
2019-03-31T21:42:53.267Z,4.50
2019-03-31T21:45:21.757Z,5.00
2019-03-31T21:47:50.281Z,4.47
2019-03-31T21:50:18.808Z,4.57
2019-03-31T21:52:47.260Z,4.50
2019-03-31T21:55:15.731Z,4.80
2019-03-31T21:57:44.158Z,4.67
2019-03-31T22:00:13.051Z,4.80
2019-03-31T22:02:41.727Z,4.33
2019-03-31T22:05:10.666Z,3.90
2019-03-31T22:07:39.155Z,3.53
2019-03-31T22:10:07.846Z,24.17
2019-03-31T22:12:36.342Z,7.37
2019-03-31T22:15:06.947Z,5.10
2019-03-31T22:17:35.457Z,3.73
2019-03-31T22:20:05.463Z,3.67
2019-03-31T22:22:33.880Z,3.30
2019-03-31T22:25:02.351Z,3.83
2019-03-31T22:27:30.775Z,4.10
2019-03-31T22:29:59.309Z,3.30
2019-03-31T22:32:27.758Z,3.93
2019-03-31T22:34:56.388Z,3.43
2019-03-31T22:37:24.949Z,3.73
2019-03-31T22:39:53.404Z,3.67
2019-03-31T22:42:21.826Z,3.60
2019-03-31T22:44:50.272Z,4.10
2019-03-31T22:47:18.806Z,3.97
2019-03-31T22:49:47.247Z,4.07
2019-03-31T22:52:15.688Z,3.63
2019-03-31T22:54:44.131Z,4.40
2019-03-31T22:57:12.559Z,3.70
2019-03-31T22:59:41.014Z,3.83
2019-03-31T23:02:09.452Z,4.10
2019-03-31T23:04:37.903Z,3.33
2019-03-31T23:07:06.379Z,3.73
2019-03-31T23:09:34.875Z,3.87
2019-03-31T23:12:03.327Z,3.90
2019-03-31T23:14:31.775Z,4.03
2019-03-31T23:17:00.487Z,3.70
2019-03-31T23:19:28.915Z,3.67
2019-03-31T23:21:57.362Z,3.60
2019-03-31T23:24:25.999Z,3.53
2019-03-31T23:26:54.446Z,3.70
2019-03-31T23:29:22.863Z,4.50
2019-03-31T23:31:51.350Z,3.63
2019-03-31T23:34:19.940Z,3.53
2019-03-31T23:36:48.370Z,4.13
2019-03-31T23:39:16.798Z,3.70
2019-03-31T23:41:45.246Z,3.80
2019-03-31T23:44:13.695Z,3.70
2019-03-31T23:46:42.155Z,3.53
2019-03-31T23:49:10.670Z,3.83
2019-03-31T23:51:39.133Z,4.07
2019-03-31T23:54:07.566Z,3.90
2019-03-31T23:56:36.037Z,3.90
2019-03-31T23:59:04.451Z,3.47
